Time,TemperatureF,DewpointF,PressureIn,WindDirection,WindDirectionDegrees,WindSpeedMPH,WindSpeedGustMPH,Humidity,HourlyPrecipIn,Conditions,Clouds,dailyrainin,SoftwareType,DateUTC
2013-04-12 00:03:00,36.0,32.0,-100.00,WNW,295,1.0,2.0,85,-99.99,,,-99.99,,2013-04-12 05:03:00,
2013-04-12 00:12:00,35.0,32.0,-100.00,WNW,295,1.0,4.0,86,-99.99,,,-99.99,,2013-04-12 05:12:00,
2013-04-12 00:23:00,35.0,32.0,-100.00,WNW,295,1.0,4.0,86,-99.99,,,-99.99,,2013-04-12 05:23:00,
2013-04-12 00:32:00,37.0,30.0,-100.00,NW,305,2.0,4.0,75,-99.99,,,-99.99,,2013-04-12 05:32:00,
2013-04-12 00:42:00,38.0,30.0,-100.00,NW,310,3.0,6.0,72,-99.99,,,-99.99,,2013-04-12 05:42:00,
2013-04-12 00:52:00,38.0,30.0,-100.00,NW,310,3.0,6.0,72,-99.99,,,-99.99,,2013-04-12 05:52:00,
2013-04-12 01:02:00,37.0,30.0,-100.00,NW,305,3.0,6.0,77,-99.99,,,-99.99,,2013-04-12 06:02:00,
2013-04-12 01:12:00,38.0,30.0,-100.00,NW,310,3.0,5.0,74,-99.99,,,-99.99,,2013-04-12 06:12:00,
2013-04-12 01:22:00,38.0,30.0,-100.00,NW,310,3.0,5.0,74,-99.99,,,-99.99,,2013-04-12 06:22:00,
2013-04-12 01:32:00,37.0,30.0,-100.00,WNW,300,2.0,4.0,77,-99.99,,,-99.99,,2013-04-12 06:32:00,
2013-04-12 01:42:00,36.0,31.0,-100.00,WNW,295,2.0,3.0,80,-99.99,,,-99.99,,2013-04-12 06:42:00,
2013-04-12 01:52:00,36.0,31.0,-100.00,WNW,295,2.0,3.0,80,-99.99,,,-99.99,,2013-04-12 06:52:00,
2013-04-12 02:02:00,35.0,31.0,-100.00,WNW,295,3.0,4.0,84,-99.99,,,-99.99,,2013-04-12 07:02:00,
2013-04-12 02:11:00,36.0,31.0,-100.00,WNW,300,4.0,5.0,81,-99.99,,,-99.99,,2013-04-12 07:11:00,
2013-04-12 02:22:00,36.0,31.0,-100.00,WNW,300,4.0,5.0,81,-99.99,,,-99.99,,2013-04-12 07:22:00,
2013-04-12 02:32:00,36.0,30.0,-100.00,WNW,300,3.0,5.0,79,-99.99,,,-99.99,,2013-04-12 07:32:00,
2013-04-12 02:42:00,36.0,30.0,-100.00,WNW,300,4.0,5.0,78,-99.99,,,-99.99,,2013-04-12 07:42:00,
2013-04-12 02:52:00,36.0,30.0,-100.00,WNW,300,4.0,5.0,78,-99.99,,,-99.99,,2013-04-12 07:52:00,
2013-04-12 03:03:00,36.0,30.0,-100.00,NW,310,1.0,4.0,77,-99.99,,,-99.99,,2013-04-12 08:03:00,
2013-04-12 03:12:00,36.0,30.0,-100.00,NW,305,2.0,5.0,77,-99.99,,,-99.99,,2013-04-12 08:12:00,
2013-04-12 03:22:00,36.0,30.0,-100.00,NW,305,2.0,5.0,77,-99.99,,,-99.99,,2013-04-12 08:22:00,
2013-04-12 03:32:00,37.0,30.0,-100.00,NW,305,2.0,5.0,75,-99.99,,,-99.99,,2013-04-12 08:32:00,
2013-04-12 03:42:00,38.0,30.0,-100.00,NW,310,5.0,8.0,75,-99.99,,,-99.99,,2013-04-12 08:42:00,
2013-04-12 03:52:00,38.0,30.0,-100.00,NW,310,5.0,8.0,75,-99.99,,,-99.99,,2013-04-12 08:52:00,
2013-04-12 04:02:00,38.0,31.0,-100.00,NW,315,3.0,8.0,75,-99.99,,,-99.99,,2013-04-12 09:02:00,
2013-04-12 04:12:00,38.0,31.0,-100.00,NW,315,3.0,7.0,77,-99.99,,,-99.99,,2013-04-12 09:12:00,
2013-04-12 04:22:00,38.0,31.0,-100.00,NW,315,3.0,7.0,77,-99.99,,,-99.99,,2013-04-12 09:22:00,
2013-04-12 04:33:00,38.0,31.0,-100.00,NW,305,2.0,4.0,76,-99.99,,,-99.99,,2013-04-12 09:33:00,
2013-04-12 04:43:00,38.0,31.0,-100.00,NW,305,3.0,4.0,76,-99.99,,,-99.99,,2013-04-12 09:43:00,
2013-04-12 04:52:00,38.0,31.0,-100.00,NW,305,3.0,4.0,76,-99.99,,,-99.99,,2013-04-12 09:52:00,
2013-04-12 05:03:00,38.0,31.0,-100.00,NW,310,3.0,7.0,78,-99.99,,,-99.99,,2013-04-12 10:03:00,
2013-04-12 05:12:00,38.0,31.0,-100.00,NW,310,3.0,5.0,78,-99.99,,,-99.99,,2013-04-12 10:12:00,
2013-04-12 05:23:00,38.0,31.0,-100.00,NW,310,3.0,5.0,78,-99.99,,,-99.99,,2013-04-12 10:23:00,
2013-04-12 05:34:00,37.0,31.0,-100.00,NW,310,5.0,7.0,77,-99.99,,,-99.99,,2013-04-12 10:34:00,
2013-04-12 05:42:00,38.0,31.0,-100.00,NW,310,4.0,10.0,75,-99.99,,,-99.99,,2013-04-12 10:42:00,
2013-04-12 05:52:00,38.0,31.0,-100.00,NW,310,4.0,10.0,75,-99.99,,,-99.99,,2013-04-12 10:52:00,
2013-04-12 06:03:00,38.0,29.0,-100.00,NW,310,7.0,11.0,71,-99.99,,,-99.99,,2013-04-12 11:03:00,
2013-04-12 06:13:00,38.0,29.0,-100.00,NW,310,8.0,13.0,70,-99.99,,,-99.99,,2013-04-12 11:13:00,
2013-04-12 06:22:00,38.0,29.0,-100.00,NW,310,8.0,13.0,70,-99.99,,,-99.99,,2013-04-12 11:22:00,
2013-04-12 06:32:00,37.0,27.0,-100.00,NW,310,9.0,19.0,66,-99.99,,,-99.99,,2013-04-12 11:32:00,
2013-04-12 06:42:00,37.0,26.0,-100.00,NW,310,8.0,19.0,64,-99.99,,,-99.99,,2013-04-12 11:42:00,
2013-04-12 06:52:00,37.0,26.0,-100.00,NW,310,8.0,19.0,64,-99.99,,,-99.99,,2013-04-12 11:52:00,
2013-04-12 07:02:00,37.0,25.0,-100.00,NW,310,8.0,13.0,63,-99.99,,,-99.99,,2013-04-12 12:02:00,
2013-04-12 07:13:00,36.0,26.0,-100.00,NW,310,6.0,10.0,66,-99.99,,,-99.99,,2013-04-12 12:13:00,
2013-04-12 07:22:00,36.0,26.0,-100.00,NW,310,6.0,10.0,66,-99.99,,,-99.99,,2013-04-12 12:22:00,
2013-04-12 07:33:00,36.0,26.0,-100.00,NW,310,6.0,12.0,65,-99.99,,,-99.99,,2013-04-12 12:33:00,
2013-04-12 07:42:00,36.0,26.0,-100.00,NW,315,6.0,11.0,67,-99.99,,,-99.99,,2013-04-12 12:42:00,
2013-04-12 07:52:00,36.0,26.0,-100.00,NW,315,6.0,11.0,67,-99.99,,,-99.99,,2013-04-12 12:52:00,
2013-04-12 08:03:00,36.0,25.0,-100.00,NW,310,10.0,17.0,64,-99.99,,,-99.99,,2013-04-12 13:03:00,
2013-04-12 08:12:00,37.0,26.0,-100.00,NW,310,9.0,16.0,65,-99.99,,,-99.99,,2013-04-12 13:12:00,
2013-04-12 08:22:00,37.0,26.0,-100.00,NW,310,9.0,16.0,65,-99.99,,,-99.99,,2013-04-12 13:22:00,
2013-04-12 08:32:00,37.0,26.0,-100.00,NW,310,7.0,14.0,64,-99.99,,,-99.99,,2013-04-12 13:32:00,
2013-04-12 08:42:00,38.0,27.0,-100.00,NW,310,12.0,17.0,66,-99.99,,,-99.99,,2013-04-12 13:42:00,
2013-04-12 08:52:00,38.0,27.0,-100.00,NW,310,12.0,17.0,66,-99.99,,,-99.99,,2013-04-12 13:52:00,
2013-04-12 09:03:00,38.0,26.0,-100.00,NW,310,14.0,22.0,63,-99.99,,,-99.99,,2013-04-12 14:03:00,
2013-04-12 09:13:00,38.0,27.0,-100.00,NW,310,12.0,20.0,63,-99.99,,,-99.99,,2013-04-12 14:13:00,
2013-04-12 09:22:00,38.0,27.0,-100.00,NW,310,12.0,20.0,63,-99.99,,,-99.99,,2013-04-12 14:22:00,
2013-04-12 09:33:00,39.0,26.0,-100.00,NW,315,16.0,24.0,61,-99.99,,,-99.99,,2013-04-12 14:33:00,
2013-04-12 09:42:00,39.0,27.0,-100.00,NW,310,15.0,22.0,60,-99.99,,,-99.99,,2013-04-12 14:42:00,
2013-04-12 09:53:00,39.0,27.0,-100.00,NW,310,15.0,22.0,60,-99.99,,,-99.99,,2013-04-12 14:53:00,
2013-04-12 10:02:00,40.0,27.0,-100.00,NW,315,12.0,19.0,59,-99.99,,,-99.99,,2013-04-12 15:02:00,
2013-04-12 10:12:00,40.0,26.0,-100.00,NW,310,21.0,29.0,58,-99.99,,,-99.99,,2013-04-12 15:12:00,
2013-04-12 10:22:00,40.0,26.0,-100.00,NW,310,21.0,29.0,58,-99.99,,,-99.99,,2013-04-12 15:22:00,
2013-04-12 10:33:00,41.0,27.0,-100.00,NW,315,18.0,29.0,57,-99.99,,,-99.99,,2013-04-12 15:33:00,
2013-04-12 10:43:00,41.0,27.0,-100.00,NW,310,15.0,24.0,57,-99.99,,,-99.99,,2013-04-12 15:43:00,
2013-04-12 10:53:00,41.0,27.0,-100.00,NW,310,15.0,24.0,57,-99.99,,,-99.99,,2013-04-12 15:53:00,
2013-04-12 11:04:00,41.0,27.0,-100.00,NW,315,14.0,25.0,57,-99.99,,,-99.99,,2013-04-12 16:04:00,
2013-04-12 11:13:00,41.0,26.0,-100.00,NW,310,17.0,31.0,55,-99.99,,,-99.99,,2013-04-12 16:13:00,
2013-04-12 11:23:00,41.0,26.0,-100.00,NW,310,17.0,31.0,55,-99.99,,,-99.99,,2013-04-12 16:23:00,
2013-04-12 11:33:00,42.0,26.0,-100.00,NW,310,13.0,27.0,53,-99.99,,,-99.99,,2013-04-12 16:33:00,
2013-04-12 11:42:00,44.0,28.0,-100.00,NW,310,13.0,19.0,53,-99.99,,,-99.99,,2013-04-12 16:42:00,
2013-04-12 11:52:00,44.0,28.0,-100.00,NW,310,13.0,19.0,53,-99.99,,,-99.99,,2013-04-12 16:52:00,
2013-04-12 12:03:00,44.0,28.0,-100.00,NW,310,17.0,28.0,54,-99.99,,,-99.99,,2013-04-12 17:03:00,
2013-04-12 12:12:00,44.0,27.0,-100.00,NW,315,18.0,26.0,52,-99.99,,,-99.99,,2013-04-12 17:12:00,
2013-04-12 12:23:00,44.0,27.0,-100.00,NW,315,18.0,26.0,52,-99.99,,,-99.99,,2013-04-12 17:23:00,
2013-04-12 12:33:00,45.0,28.0,-100.00,NW,310,16.0,24.0,51,-99.99,,,-99.99,,2013-04-12 17:33:00,
2013-04-12 12:45:00,45.0,29.0,-100.00,NW,315,19.0,29.0,53,-99.99,,,-99.99,,2013-04-12 17:45:00,
2013-04-12 12:58:00,45.0,29.0,-100.00,NW,315,19.0,29.0,53,-99.99,,,-99.99,,2013-04-12 17:58:00,
2013-04-12 13:10:00,45.0,28.0,-100.00,NW,310,16.0,26.0,50,-99.99,,,-99.99,,2013-04-12 18:10:00,
2013-04-12 13:20:00,47.0,30.0,-100.00,NW,315,12.0,26.0,52,-99.99,,,-99.99,,2013-04-12 18:20:00,
2013-04-12 14:26:00,47.0,29.0,-100.00,NW,310,17.0,26.0,50,-99.99,,,-99.99,,2013-04-12 19:26:00,
2013-04-12 14:32:00,48.0,31.0,-100.00,NW,315,17.0,29.0,51,-99.99,,,-99.99,,2013-04-12 19:32:00,
2013-04-12 14:43:00,48.0,30.0,-100.00,NW,315,15.0,28.0,49,-99.99,,,-99.99,,2013-04-12 19:43:00,
2013-04-12 14:52:00,48.0,30.0,-100.00,NW,315,15.0,28.0,49,-99.99,,,-99.99,,2013-04-12 19:52:00,
2013-04-12 15:02:00,47.0,29.0,-100.00,NW,315,19.0,27.0,49,-99.99,,,-99.99,,2013-04-12 20:02:00,
2013-04-12 15:12:00,49.0,34.0,-100.00,NW,315,14.0,24.0,55,-99.99,,,-99.99,,2013-04-12 20:12:00,
2013-04-12 15:22:00,49.0,34.0,-100.00,NW,315,14.0,24.0,55,-99.99,,,-99.99,,2013-04-12 20:22:00,
2013-04-12 15:32:00,50.0,33.0,-100.00,NW,315,17.0,22.0,53,-99.99,,,-99.99,,2013-04-12 20:32:00,
2013-04-12 15:42:00,49.0,31.0,-100.00,NW,310,11.0,22.0,49,-99.99,,,-99.99,,2013-04-12 20:42:00,
2013-04-12 15:52:00,49.0,31.0,-100.00,NW,310,11.0,22.0,49,-99.99,,,-99.99,,2013-04-12 20:52:00,
2013-04-12 16:02:00,50.0,31.0,-100.00,NW,310,11.0,19.0,48,-99.99,,,-99.99,,2013-04-12 21:02:00,
2013-04-12 16:12:00,49.0,31.0,-100.00,NW,315,11.0,23.0,49,-99.99,,,-99.99,,2013-04-12 21:12:00,
2013-04-12 16:22:00,49.0,31.0,-100.00,NW,315,11.0,23.0,49,-99.99,,,-99.99,,2013-04-12 21:22:00,
2013-04-12 16:33:00,50.0,32.0,-100.00,NW,315,12.0,22.0,49,-99.99,,,-99.99,,2013-04-12 21:33:00,
2013-04-12 16:43:00,52.0,34.0,-100.00,NW,315,10.0,22.0,50,-99.99,,,-99.99,,2013-04-12 21:43:00,
2013-04-12 16:52:00,52.0,34.0,-100.00,NW,315,10.0,22.0,50,-99.99,,,-99.99,,2013-04-12 21:52:00,
2013-04-12 17:02:00,51.0,32.0,-100.00,NW,315,13.0,18.0,48,-99.99,,,-99.99,,2013-04-12 22:02:00,
2013-04-12 17:13:00,50.0,31.0,-100.00,NW,315,11.0,23.0,47,-99.99,,,-99.99,,2013-04-12 22:13:00,
2013-04-12 17:22:00,50.0,31.0,-100.00,NW,315,11.0,23.0,47,-99.99,,,-99.99,,2013-04-12 22:22:00,
2013-04-12 17:32:00,51.0,33.0,-100.00,NW,315,13.0,21.0,51,-99.99,,,-99.99,,2013-04-12 22:32:00,
2013-04-12 17:42:00,51.0,32.0,-100.00,NW,310,11.0,20.0,48,-99.99,,,-99.99,,2013-04-12 22:42:00,
2013-04-12 17:52:00,51.0,32.0,-100.00,NW,310,11.0,20.0,48,-99.99,,,-99.99,,2013-04-12 22:52:00,
2013-04-12 18:03:00,51.0,33.0,-100.00,NW,315,11.0,20.0,49,-99.99,,,-99.99,,2013-04-12 23:03:00,
2013-04-12 18:12:00,51.0,32.0,-100.00,NW,310,12.0,17.0,48,-99.99,,,-99.99,,2013-04-12 23:12:00,
2013-04-12 18:22:00,51.0,32.0,-100.00,NW,310,12.0,17.0,48,-99.99,,,-99.99,,2013-04-12 23:22:00,
2013-04-12 18:32:00,52.0,33.0,-100.00,NW,310,9.0,16.0,48,-99.99,,,-99.99,,2013-04-12 23:32:00,
2013-04-12 18:42:00,52.0,32.0,-100.00,NW,315,10.0,16.0,47,-99.99,,,-99.99,,2013-04-12 23:42:00,
2013-04-12 18:52:00,52.0,32.0,-100.00,NW,315,10.0,16.0,47,-99.99,,,-99.99,,2013-04-12 23:52:00,
2013-04-12 19:02:00,51.0,32.0,-100.00,NW,310,14.0,20.0,49,-99.99,,,-99.99,,2013-04-13 00:02:00,
2013-04-12 19:12:00,51.0,33.0,-100.00,NW,315,9.0,14.0,50,-99.99,,,-99.99,,2013-04-13 00:12:00,
2013-04-12 19:22:00,51.0,33.0,-100.00,NW,315,9.0,14.0,50,-99.99,,,-99.99,,2013-04-13 00:22:00,
2013-04-12 19:32:00,51.0,33.0,-100.00,NW,315,6.0,16.0,51,-99.99,,,-99.99,,2013-04-13 00:32:00,
2013-04-12 19:42:00,50.0,32.0,-100.00,NW,315,9.0,14.0,50,-99.99,,,-99.99,,2013-04-13 00:42:00,
2013-04-12 19:52:00,50.0,32.0,-100.00,NW,315,9.0,14.0,50,-99.99,,,-99.99,,2013-04-13 00:52:00,
2013-04-12 20:02:00,49.0,33.0,-100.00,NW,315,6.0,9.0,53,-99.99,,,-99.99,,2013-04-13 01:02:00,
2013-04-12 20:13:00,49.0,33.0,-100.00,NW,315,6.0,11.0,54,-99.99,,,-99.99,,2013-04-13 01:13:00,
2013-04-12 20:22:00,49.0,33.0,-100.00,NW,315,6.0,11.0,54,-99.99,,,-99.99,,2013-04-13 01:22:00,
2013-04-12 20:32:00,47.0,32.0,-100.00,NW,315,4.0,9.0,55,-99.99,,,-99.99,,2013-04-13 01:32:00,
2013-04-12 20:42:00,47.0,32.0,-100.00,NW,320,1.0,4.0,56,-99.99,,,-99.99,,2013-04-13 01:42:00,
2013-04-12 20:52:00,47.0,32.0,-100.00,NW,320,1.0,4.0,56,-99.99,,,-99.99,,2013-04-13 01:52:00,
2013-04-12 21:02:00,45.0,32.0,-100.00,NW,315,1.0,2.0,62,-99.99,,,-99.99,,2013-04-13 02:02:00,
2013-04-12 21:12:00,46.0,32.0,-100.00,NW,320,1.0,4.0,59,-99.99,,,-99.99,,2013-04-13 02:12:00,
2013-04-12 21:22:00,46.0,32.0,-100.00,NW,320,1.0,4.0,59,-99.99,,,-99.99,,2013-04-13 02:22:00,
2013-04-12 21:32:00,44.0,34.0,-100.00,WNW,295,2.0,4.0,68,-99.99,,,-99.99,,2013-04-13 02:32:00,
2013-04-12 21:42:00,44.0,34.0,-100.00,NW,325,1.0,3.0,69,-99.99,,,-99.99,,2013-04-13 02:42:00,
2013-04-12 21:52:00,44.0,34.0,-100.00,NW,325,1.0,3.0,69,-99.99,,,-99.99,,2013-04-13 02:52:00,
2013-04-12 22:02:00,43.0,35.0,-100.00,WNW,290,1.0,4.0,74,-99.99,,,-99.99,,2013-04-13 03:02:00,
2013-04-12 22:12:00,42.0,34.0,-100.00,WNW,290,1.0,4.0,75,-99.99,,,-99.99,,2013-04-13 03:12:00,
2013-04-12 22:23:00,42.0,34.0,-100.00,WNW,290,1.0,4.0,75,-99.99,,,-99.99,,2013-04-13 03:23:00,
2013-04-12 22:33:00,41.0,34.0,-100.00,WNW,290,1.0,4.0,77,-99.99,,,-99.99,,2013-04-13 03:33:00,
2013-04-12 22:42:00,40.0,35.0,-100.00,West,280,1.0,2.0,81,-99.99,,,-99.99,,2013-04-13 03:42:00,
2013-04-12 22:53:00,40.0,35.0,-100.00,West,280,1.0,2.0,81,-99.99,,,-99.99,,2013-04-13 03:53:00,
2013-04-12 23:03:00,39.0,34.0,-100.00,WNW,285,1.0,4.0,83,-99.99,,,-99.99,,2013-04-13 04:03:00,
2013-04-12 23:12:00,39.0,34.0,-100.00,WSW,255,0.0,3.0,84,-99.99,,,-99.99,,2013-04-13 04:12:00,
2013-04-12 23:23:00,39.0,34.0,-100.00,WSW,255,0.0,3.0,84,-99.99,,,-99.99,,2013-04-13 04:23:00,
2013-04-12 23:33:00,38.0,34.0,-100.00,WNW,300,1.0,2.0,85,-99.99,,,-99.99,,2013-04-13 04:33:00,
2013-04-12 23:42:00,37.0,34.0,-100.00,West,275,2.0,4.0,87,-99.99,,,-99.99,,2013-04-13 04:42:00,
2013-04-12 23:53:00,37.0,34.0,-100.00,West,275,2.0,4.0,87,-99.99,,,-99.99,,2013-04-13 04:53:00,